»·PEaware :: N80991 KSEE-KWHP

N80991 :: KSEE-KWHP

FLIGHT INFORMATION

Flight Status: Arrived
Operator: Privately registered:
United States
More flights under this callsign
Pilot: David D. (37029)
Aircraft: CESSNA 172 SKYHAWK
(C172)
More flights by this aircraft type
Origin: KSEE Gillespie
United States
Destination: KWHP Whiteman
United States
More flights between these airports :: More routes between these airports
Route: OCN V23 POPPR SMO125 SMO SMO317 CANOG
File this flight plan on PilotEdge
Remarks:
Altitude:
(Current/Filed)
6,000ft
Speed:
(Current/Filed)
105kts
Departed: 30-Jul-23 03:04 PM
Arrived: 30-Jul-23 04:24 PM
Distance/Time
Traveled:
112nm/1:20
Distance/Time
To Go:
Arrived

Flight Plot

Page will automatically refresh every two minutes.


Map Options




Map Legend


Flown Route
Filed Route
Departure Airport
Arrival Airport
Navaid (VOR, NDB)
Fix

Horizontal Profiles

Position Reports

Time Latitude Longitude Heading Altitude Ground
Speed
30-Jul-23 14:35 32.826398 -116.979216 99 368ft 0kts
30-Jul-23 14:36 32.826398 -116.979216 99 368ft 0kts
30-Jul-23 14:37 32.826398 -116.979216 99 368ft 0kts
30-Jul-23 14:38 32.826398 -116.979216 99 368ft 0kts
30-Jul-23 14:39 32.826398 -116.979216 99 368ft 0kts
30-Jul-23 14:40 32.826398 -116.979216 99 368ft 0kts
30-Jul-23 14:41 32.826398 -116.979216 99 368ft 0kts
30-Jul-23 14:42 32.826398 -116.979216 99 368ft 0kts
30-Jul-23 14:43 32.826398 -116.979216 99 368ft 0kts
30-Jul-23 14:44 32.826398 -116.979216 99 368ft 0kts
30-Jul-23 14:45 32.826398 -116.979216 99 368ft 0kts
30-Jul-23 14:46 32.826398 -116.979216 99 368ft 0kts
30-Jul-23 14:47 32.826398 -116.979216 99 368ft 0kts
30-Jul-23 14:48 32.826398 -116.979216 99 368ft 0kts
30-Jul-23 14:49 32.826398 -116.979216 99 368ft 0kts
30-Jul-23 14:50 32.826398 -116.979216 99 368ft 0kts
30-Jul-23 14:51 32.826398 -116.979216 99 368ft 0kts
30-Jul-23 14:52 32.826398 -116.979216 99 368ft 0kts
30-Jul-23 14:53 32.827150 -116.978793 35 368ft 6kts
30-Jul-23 14:54 32.826755 -116.976059 102 370ft 10kts
30-Jul-23 14:55 32.826086 -116.972353 101 375ft 11kts
30-Jul-23 14:56 32.825392 -116.968526 102 381ft 10kts
30-Jul-23 14:57 32.824816 -116.965310 102 389ft 8kts
30-Jul-23 14:58 32.825354 -116.964130 324 393ft 0kts
30-Jul-23 14:59 32.825354 -116.964130 324 393ft 0kts
30-Jul-23 15:00 32.825361 -116.964136 323 393ft 0kts
30-Jul-23 15:01 32.826095 -116.964437 347 391ft 6kts
30-Jul-23 15:02 32.826442 -116.964552 305 390ft 5kts
30-Jul-23 15:03 32.830523 -116.983766 309 786ft 82kts
30-Jul-23 15:04 32.850845 -116.996260 329 1550ft 85kts
30-Jul-23 15:05 32.872721 -117.008656 329 2252ft 88kts
30-Jul-23 15:06 32.895029 -117.021006 329 2957ft 87kts
30-Jul-23 15:07 32.912132 -117.040226 308 3610ft 84kts
30-Jul-23 15:08 32.929088 -117.060025 310 4214ft 84kts
30-Jul-23 15:09 32.946856 -117.080331 320 4731ft 93kts
30-Jul-23 15:10 32.966206 -117.102485 322 5225ft 99kts
30-Jul-23 15:11 32.986629 -117.125468 322 5719ft 102kts
30-Jul-23 15:12 33.008569 -117.150474 323 5965ft 119kts
30-Jul-23 15:13 33.032976 -117.178053 321 5963ft 118kts
30-Jul-23 15:14 33.056592 -117.205380 321 5964ft 118kts
30-Jul-23 15:15 33.080425 -117.232813 321 5964ft 118kts
30-Jul-23 15:16 33.104062 -117.260037 321 5965ft 118kts
30-Jul-23 15:17 33.127840 -117.287364 321 5965ft 117kts
30-Jul-23 15:18 33.151320 -117.314463 321 5964ft 116kts
30-Jul-23 15:19 33.174356 -117.341126 321 5963ft 114kts
30-Jul-23 15:20 33.197000 -117.367313 309 5957ft 113kts
30-Jul-23 15:21 33.220521 -117.395053 310 5958ft 121kts
30-Jul-23 15:22 33.245264 -117.423479 310 5958ft 124kts
30-Jul-23 15:23 33.270180 -117.452378 310 5958ft 125kts
30-Jul-23 15:24 33.295331 -117.481621 310 5959ft 125kts
30-Jul-23 15:25 33.320451 -117.510843 310 5960ft 125kts
30-Jul-23 15:26 33.345349 -117.539871 309 5961ft 124kts
30-Jul-23 15:27 33.370167 -117.568833 309 5962ft 123kts
30-Jul-23 15:28 33.394857 -117.597674 309 5963ft 121kts
30-Jul-23 15:29 33.418890 -117.625718 322 5962ft 112kts
30-Jul-23 15:30 33.440587 -117.651130 320 5987ft 108kts
30-Jul-23 15:31 33.462243 -117.676607 318 5981ft 109kts
30-Jul-23 15:32 33.484285 -117.702513 315 5976ft 112kts
30-Jul-23 15:33 33.506956 -117.729168 315 5972ft 115kts
30-Jul-23 15:34 33.529984 -117.756178 315 5969ft 116kts
30-Jul-23 15:35 33.553136 -117.783388 315 5966ft 117kts
30-Jul-23 15:36 33.576339 -117.810658 315 5965ft 117kts
30-Jul-23 15:37 33.599677 -117.838122 315 5964ft 117kts
30-Jul-23 15:38 33.622857 -117.865446 315 5962ft 116kts
30-Jul-23 15:39 33.646008 -117.892715 315 5960ft 116kts
30-Jul-23 15:40 33.666529 -117.922536 299 5958ft 116kts
30-Jul-23 15:41 33.681968 -117.956438 298 5956ft 114kts
30-Jul-23 15:42 33.697756 -117.989433 296 5953ft 114kts
30-Jul-23 15:43 33.713957 -118.022972 295 5951ft 118kts
30-Jul-23 15:44 33.731777 -118.059001 296 5521ft 130kts
30-Jul-23 15:45 33.750685 -118.097255 296 5024ft 133kts
30-Jul-23 15:46 33.769269 -118.135409 295 4530ft 131kts
30-Jul-23 15:47 33.787463 -118.172962 295 4033ft 128kts
30-Jul-23 15:48 33.803529 -118.207030 293 4035ft 112kts
30-Jul-23 15:50 33.818911 -118.239311 293 4039ft 110kts
30-Jul-23 15:51 33.834291 -118.271217 294 4044ft 109kts
30-Jul-23 15:52 33.854965 -118.300461 314 4046ft 122kts
30-Jul-23 15:53 33.881200 -118.326694 314 4045ft 121kts
30-Jul-23 15:54 33.906841 -118.352487 314 4043ft 119kts
30-Jul-23 15:55 33.932631 -118.378567 314 4046ft 123kts
30-Jul-23 15:56 33.958699 -118.404621 314 4049ft 120kts
30-Jul-23 15:57 33.984844 -118.430950 315 4053ft 119kts
30-Jul-23 15:58 34.010806 -118.456684 321 4056ft 121kts
30-Jul-23 15:59 34.040670 -118.476147 327 4058ft 122kts
30-Jul-23 16:00 34.070908 -118.495519 328 4060ft 123kts
30-Jul-23 16:01 34.101485 -118.515232 328 4060ft 126kts
30-Jul-23 16:02 34.132599 -118.535514 329 4104ft 124kts
30-Jul-23 16:03 34.159654 -118.555105 328 4788ft 101kts
30-Jul-23 16:04 34.183598 -118.575516 329 4970ft 111kts
30-Jul-23 16:05 34.209073 -118.597017 329 4969ft 111kts
30-Jul-23 16:06 34.234305 -118.619163 328 4970ft 112kts
30-Jul-23 16:07 34.259485 -118.641249 328 4971ft 111kts
30-Jul-23 16:08 34.284479 -118.663032 328 4972ft 110kts
30-Jul-23 16:09 34.309341 -118.684504 328 4973ft 107kts
30-Jul-23 16:10 34.336879 -118.703613 328 4975ft 123kts
30-Jul-23 16:10 34.362029 -118.718768 327 4975ft 117kts
30-Jul-23 16:12 34.389450 -118.708422 111 4979ft 107kts
30-Jul-23 16:13 34.381741 -118.676399 79 4973ft 97kts
30-Jul-23 16:14 34.383109 -118.644955 81 4972ft 91kts
30-Jul-23 16:15 34.372562 -118.615026 121 4681ft 102kts
30-Jul-23 16:15 34.361051 -118.593706 117 4681ft 87kts
30-Jul-23 16:16 34.347197 -118.569410 118 4677ft 88kts
30-Jul-23 16:18 34.330462 -118.538284 118 3865ft 91kts
30-Jul-23 16:19 34.317636 -118.514426 119 3517ft 75kts
30-Jul-23 16:19 34.307046 -118.494873 120 3008ft 88kts
30-Jul-23 16:20 34.293633 -118.469969 120 2392ft 87kts
30-Jul-23 16:21 34.281083 -118.446230 118 1836ft 78kts
30-Jul-23 16:22 34.269823 -118.425094 128 1347ft 70kts
30-Jul-23 16:24 34.255522 -118.409478 141 967ft 15kts
30-Jul-23 16:24 34.255591 -118.408936 339 966ft 4kts
30-Jul-23 16:25 34.257673 -118.411087 318 983ft 9kts
30-Jul-23 16:26 34.259633 -118.412762 40 994ft 6kts
30-Jul-23 16:27 34.259957 -118.412699 322 996ft 0kts

Navigation Log

Ident Type
Flight plan parsing failed, navigation log unavailable